createdAt,value
2023-03-07T00:00:16.617Z,2.79
2023-03-07T00:01:17.157Z,2.79
2023-03-07T00:02:17.314Z,2.78
2023-03-07T00:03:16.807Z,2.75
2023-03-07T00:04:16.371Z,2.74
2023-03-07T00:05:16.869Z,2.78
2023-03-07T00:06:16.376Z,2.74
2023-03-07T00:07:16.886Z,2.74
2023-03-07T00:08:16.363Z,2.75
2023-03-07T00:09:16.900Z,2.74
2023-03-07T00:10:16.459Z,2.72
2023-03-07T00:11:16.969Z,2.71
2023-03-07T00:12:17.243Z,2.72
2023-03-07T00:13:16.745Z,2.68
2023-03-07T00:14:17.270Z,2.71
2023-03-07T00:15:16.767Z,2.68
2023-03-07T00:16:17.286Z,2.68
2023-03-07T00:17:16.910Z,2.71
2023-03-07T00:18:16.384Z,2.70
2023-03-07T00:19:16.887Z,2.71
2023-03-07T00:20:16.404Z,2.70
2023-03-07T00:21:16.909Z,2.70
2023-03-07T00:22:16.944Z,2.68
2023-03-07T00:23:16.436Z,2.68
2023-03-07T00:24:16.991Z,2.70
2023-03-07T00:25:16.502Z,2.67
2023-03-07T00:26:17.004Z,2.70
2023-03-07T00:27:16.490Z,2.65
2023-03-07T00:28:17.005Z,2.67
2023-03-07T00:29:16.525Z,2.67
2023-03-07T00:30:17.063Z,2.67
2023-03-07T00:31:16.630Z,2.70
2023-03-07T00:32:17.349Z,2.68
2023-03-07T00:33:16.908Z,2.67
2023-03-07T00:34:16.433Z,2.68
2023-03-07T00:35:16.948Z,2.67
2023-03-07T00:36:16.454Z,2.70
2023-03-07T00:37:17.016Z,2.68
2023-03-07T00:38:16.511Z,2.65
2023-03-07T00:39:17.023Z,2.64
2023-03-07T00:40:16.558Z,2.67
2023-03-07T00:41:17.054Z,2.64
2023-03-07T00:42:16.350Z,2.64
2023-03-07T00:43:16.833Z,2.68
2023-03-07T00:44:16.331Z,2.64
2023-03-07T00:45:16.827Z,2.61
2023-03-07T00:46:16.333Z,2.65
2023-03-07T00:47:16.934Z,2.65
2023-03-07T00:48:16.448Z,2.63
2023-03-07T00:49:16.930Z,2.64
2023-03-07T00:50:16.487Z,2.63
2023-03-07T00:51:17.004Z,2.64
2023-03-07T00:52:16.594Z,2.63
2023-03-07T00:53:17.102Z,2.63
2023-03-07T00:54:16.600Z,2.61
2023-03-07T00:55:17.114Z,2.63
2023-03-07T00:56:16.624Z,2.63
2023-03-07T00:57:17.158Z,2.63
2023-03-07T00:58:16.672Z,2.61
2023-03-07T00:59:17.175Z,2.61
2023-03-07T01:00:16.685Z,2.61
2023-03-07T01:01:17.241Z,2.61
2023-03-07T01:02:16.452Z,2.61
2023-03-07T01:03:16.937Z,2.60
2023-03-07T01:04:16.522Z,2.59
2023-03-07T01:05:17.072Z,2.59
2023-03-07T01:06:16.562Z,2.61
2023-03-07T01:07:17.089Z,2.61
2023-03-07T01:08:16.558Z,2.61
2023-03-07T01:09:17.085Z,2.59
2023-03-07T01:10:16.603Z,2.61
2023-03-07T01:11:17.097Z,2.61
2023-03-07T01:12:16.389Z,2.63
2023-03-07T01:13:16.891Z,2.60
2023-03-07T01:14:16.474Z,2.64
2023-03-07T01:15:17.020Z,2.63
2023-03-07T01:16:16.650Z,2.64
2023-03-07T01:17:17.273Z,2.64
2023-03-07T01:18:16.757Z,2.64
2023-03-07T01:19:17.265Z,2.67
2023-03-07T01:20:16.766Z,2.65
2023-03-07T01:21:17.260Z,2.64
2023-03-07T01:22:16.844Z,2.64
2023-03-07T01:23:16.332Z,2.61
2023-03-07T01:24:16.814Z,2.63
2023-03-07T01:25:16.310Z,2.63
2023-03-07T01:26:16.809Z,2.65
2023-03-07T01:27:17.340Z,2.64
2023-03-07T01:28:16.882Z,2.67
2023-03-07T01:29:16.401Z,2.67
2023-03-07T01:30:16.926Z,2.67
2023-03-07T01:31:16.467Z,2.67
2023-03-07T01:32:16.792Z,2.64
2023-03-07T01:33:16.430Z,2.64
2023-03-07T01:34:16.942Z,2.63
2023-03-07T01:35:16.456Z,2.61
2023-03-07T01:36:17.114Z,2.65
2023-03-07T01:37:16.849Z,2.64
2023-03-07T01:38:16.336Z,2.65
2023-03-07T01:39:16.881Z,2.67
2023-03-07T01:40:16.458Z,2.67
2023-03-07T01:41:17.021Z,2.67
2023-03-07T01:42:17.291Z,2.65
2023-03-07T01:43:16.774Z,2.67
2023-03-07T01:44:17.296Z,2.65
2023-03-07T01:45:16.824Z,2.67
2023-03-07T01:46:16.380Z,2.65
2023-03-07T01:47:16.963Z,2.68
2023-03-07T01:48:16.465Z,2.65
2023-03-07T01:49:16.950Z,2.67
2023-03-07T01:50:16.515Z,2.68
2023-03-07T01:51:17.011Z,2.65
2023-03-07T01:52:17.304Z,2.68
2023-03-07T01:53:16.799Z,2.65
2023-03-07T01:54:17.284Z,2.65
2023-03-07T01:55:16.793Z,2.64
2023-03-07T01:56:17.320Z,2.64
2023-03-07T01:57:16.825Z,2.67
2023-03-07T01:58:16.301Z,2.63
2023-03-07T01:59:16.792Z,2.64
2023-03-07T02:00:17.326Z,2.64
2023-03-07T02:01:16.932Z,2.67
2023-03-07T02:02:16.975Z,2.65
2023-03-07T02:03:16.542Z,2.67
2023-03-07T02:04:17.084Z,2.67
2023-03-07T02:05:16.740Z,2.61
2023-03-07T02:06:17.297Z,2.65
2023-03-07T02:07:16.837Z,2.64
2023-03-07T02:08:16.333Z,2.63
2023-03-07T02:09:16.877Z,2.63
2023-03-07T02:10:16.404Z,2.63
2023-03-07T02:11:16.880Z,2.63
2023-03-07T02:12:16.368Z,2.64
2023-03-07T02:13:16.872Z,2.61
2023-03-07T02:14:16.401Z,2.63
2023-03-07T02:15:16.895Z,2.67
2023-03-07T02:16:16.417Z,2.64
2023-03-07T02:17:16.949Z,2.63
2023-03-07T02:18:16.437Z,2.63
2023-03-07T02:19:16.970Z,2.63
2023-03-07T02:20:16.497Z,2.61
2023-03-07T02:21:16.990Z,2.60
2023-03-07T02:22:16.351Z,2.61
2023-03-07T02:23:16.884Z,2.63
2023-03-07T02:24:16.461Z,2.64
2023-03-07T02:25:16.970Z,2.63
2023-03-07T02:26:16.465Z,2.64
2023-03-07T02:27:16.958Z,2.63
2023-03-07T02:28:16.460Z,2.65
2023-03-07T02:29:16.965Z,2.65
2023-03-07T02:30:16.475Z,2.64
2023-03-07T02:31:16.997Z,2.65
2023-03-07T02:32:17.385Z,2.65
2023-03-07T02:33:16.890Z,2.65
2023-03-07T02:34:16.404Z,2.65
2023-03-07T02:35:16.910Z,2.67
2023-03-07T02:36:16.405Z,2.67
2023-03-07T02:37:16.903Z,2.67
2023-03-07T02:38:16.413Z,2.67
2023-03-07T02:39:16.916Z,2.67
2023-03-07T02:40:16.422Z,2.65
2023-03-07T02:41:16.910Z,2.67
2023-03-07T02:42:16.385Z,2.64
2023-03-07T02:43:16.876Z,2.68
2023-03-07T02:44:16.363Z,2.65
2023-03-07T02:45:16.839Z,2.65
2023-03-07T02:46:16.356Z,2.65
2023-03-07T02:47:16.937Z,2.64
2023-03-07T02:48:16.420Z,2.65
2023-03-07T02:49:16.912Z,2.65
2023-03-07T02:50:16.432Z,2.65
2023-03-07T02:51:16.956Z,2.65
2023-03-07T02:52:17.211Z,2.67
2023-03-07T02:53:16.752Z,2.65
2023-03-07T02:54:17.275Z,2.67
2023-03-07T02:55:16.814Z,2.65
2023-03-07T02:56:16.337Z,2.68
2023-03-07T02:57:16.829Z,2.68
2023-03-07T02:58:16.329Z,2.68
2023-03-07T02:59:16.831Z,2.65
2023-03-07T03:00:16.320Z,2.65
2023-03-07T03:01:16.876Z,2.65
2023-03-07T03:02:16.807Z,2.67
2023-03-07T03:03:16.291Z,2.65
2023-03-07T03:04:16.814Z,2.65
2023-03-07T03:05:16.393Z,2.64
2023-03-07T03:06:16.902Z,2.65
2023-03-07T03:07:16.440Z,2.64
2023-03-07T03:08:16.924Z,2.60
2023-03-07T03:09:16.412Z,2.57
2023-03-07T03:10:16.906Z,2.54
2023-03-07T03:11:16.383Z,2.54
2023-03-07T03:12:16.761Z,2.51
2023-03-07T03:13:17.313Z,2.49
2023-03-07T03:14:16.830Z,2.46
2023-03-07T03:15:16.327Z,2.42
2023-03-07T03:16:16.906Z,2.42
2023-03-07T03:17:16.526Z,2.44
2023-03-07T03:18:17.026Z,2.57
2023-03-07T03:19:16.526Z,2.53
2023-03-07T03:20:17.020Z,2.47
2023-03-07T03:21:16.575Z,2.50
2023-03-07T03:22:17.078Z,2.47
2023-03-07T03:23:16.591Z,2.42
2023-03-07T03:24:17.121Z,2.39
2023-03-07T03:25:16.614Z,2.34
2023-03-07T03:26:17.286Z,2.34
2023-03-07T03:27:16.876Z,2.26
2023-03-07T03:28:16.375Z,2.19
2023-03-07T03:29:16.854Z,2.13
2023-03-07T03:30:16.364Z,2.12
2023-03-07T03:31:16.910Z,2.06
2023-03-07T03:32:17.243Z,2.05
2023-03-07T03:33:16.850Z,2.05
2023-03-07T03:34:16.344Z,2.01
2023-03-07T03:35:16.881Z,2.01
2023-03-07T03:36:16.389Z,1.99
2023-03-07T03:37:16.895Z,1.94
2023-03-07T03:38:16.375Z,1.92
2023-03-07T03:39:16.866Z,1.88
2023-03-07T03:40:16.387Z,1.89
2023-03-07T03:41:16.867Z,1.87
2023-03-07T03:42:17.135Z,1.85
2023-03-07T03:43:16.629Z,1.85
2023-03-07T03:44:17.111Z,1.82
2023-03-07T03:45:16.620Z,1.81
2023-03-07T03:46:17.184Z,1.84
2023-03-07T03:47:16.756Z,1.81
2023-03-07T03:48:17.242Z,1.82
2023-03-07T03:49:16.787Z,1.81
2023-03-07T03:50:16.350Z,1.82
2023-03-07T03:51:16.846Z,1.82
2023-03-07T03:52:17.070Z,1.78
2023-03-07T03:53:16.541Z,1.78
2023-03-07T03:54:17.045Z,1.80
2023-03-07T03:55:16.553Z,1.77
2023-03-07T03:56:17.084Z,1.73
2023-03-07T03:57:16.549Z,1.71
2023-03-07T03:58:17.071Z,1.75
2023-03-07T03:59:16.588Z,1.75
2023-03-07T04:00:17.345Z,1.74
2023-03-07T04:01:16.998Z,1.71
2023-03-07T04:02:17.310Z,1.73
2023-03-07T04:03:17.064Z,1.69
2023-03-07T04:04:16.561Z,1.69
2023-03-07T04:05:17.046Z,1.71
2023-03-07T04:06:16.565Z,1.73
2023-03-07T04:07:17.083Z,1.73
2023-03-07T04:08:16.593Z,1.69
2023-03-07T04:09:17.107Z,1.71
2023-03-07T04:10:16.627Z,1.69
2023-03-07T04:11:17.125Z,1.70
2023-03-07T04:12:16.377Z,1.67
2023-03-07T04:13:16.901Z,1.69
2023-03-07T04:14:16.379Z,1.71
2023-03-07T04:15:16.911Z,1.69
2023-03-07T04:16:16.437Z,1.70
2023-03-07T04:17:17.060Z,1.69
2023-03-07T04:18:16.532Z,1.70
2023-03-07T04:19:17.005Z,1.69
2023-03-07T04:20:16.518Z,1.70
2023-03-07T04:21:17.005Z,1.73
2023-03-07T04:22:16.602Z,1.74
2023-03-07T04:23:17.104Z,1.75
2023-03-07T04:24:16.620Z,1.75
2023-03-07T04:25:17.136Z,1.73
2023-03-07T04:26:16.636Z,1.78
2023-03-07T04:27:17.177Z,1.77
2023-03-07T04:28:16.674Z,1.78
2023-03-07T04:29:17.196Z,1.77
2023-03-07T04:30:16.692Z,1.78
2023-03-07T04:31:17.185Z,1.80
2023-03-07T04:32:17.075Z,1.77
2023-03-07T04:33:16.610Z,1.78
2023-03-07T04:34:17.093Z,1.80
2023-03-07T04:35:16.613Z,1.80
2023-03-07T04:36:17.128Z,1.81
2023-03-07T04:37:16.630Z,1.78
2023-03-07T04:38:17.133Z,1.80
2023-03-07T04:39:16.672Z,1.82
2023-03-07T04:40:17.190Z,1.84
2023-03-07T04:41:16.679Z,1.85
2023-03-07T04:42:17.340Z,1.82
2023-03-07T04:43:16.846Z,1.85
2023-03-07T04:44:16.347Z,1.89
2023-03-07T04:45:16.873Z,1.89
2023-03-07T04:46:16.528Z,1.88
2023-03-07T04:47:17.244Z,1.88
2023-03-07T04:48:16.783Z,1.89
2023-03-07T04:49:17.331Z,1.92
2023-03-07T04:50:16.878Z,1.94
2023-03-07T04:51:16.386Z,1.97
2023-03-07T04:52:16.836Z,1.98
2023-03-07T04:53:16.316Z,2.01
2023-03-07T04:54:16.832Z,1.99
2023-03-07T04:55:16.350Z,1.99
2023-03-07T04:56:16.853Z,2.02
2023-03-07T04:57:16.361Z,2.04
2023-03-07T04:58:16.831Z,2.04
2023-03-07T04:59:16.309Z,2.02
2023-03-07T05:00:16.819Z,2.02
2023-03-07T05:01:17.305Z,2.04
2023-03-07T05:02:16.890Z,2.05
2023-03-07T05:03:16.389Z,2.06
2023-03-07T05:04:16.900Z,2.06
2023-03-07T05:05:16.451Z,2.06
2023-03-07T05:06:16.963Z,2.06
2023-03-07T05:07:16.467Z,2.05
2023-03-07T05:08:16.962Z,2.06
2023-03-07T05:09:16.434Z,2.06
2023-03-07T05:10:16.933Z,2.08
2023-03-07T05:11:16.520Z,2.05
2023-03-07T05:12:17.104Z,2.06
2023-03-07T05:13:16.630Z,2.09
2023-03-07T05:14:17.151Z,2.12
2023-03-07T05:15:16.692Z,2.08
2023-03-07T05:16:17.215Z,2.08
2023-03-07T05:17:16.799Z,2.05
2023-03-07T05:18:17.294Z,2.06
2023-03-07T05:19:16.796Z,2.02
2023-03-07T05:20:17.318Z,2.05
2023-03-07T05:21:16.838Z,2.02
2023-03-07T05:22:16.819Z,2.05
2023-03-07T05:23:16.316Z,2.09
2023-03-07T05:24:16.791Z,2.08
2023-03-07T05:25:17.304Z,2.06
2023-03-07T05:26:16.819Z,2.05
2023-03-07T05:27:17.312Z,2.05
2023-03-07T05:28:16.906Z,2.04
2023-03-07T05:29:16.444Z,2.04
2023-03-07T05:30:16.969Z,2.02
2023-03-07T05:31:18.351Z,2.02
2023-03-07T05:32:16.916Z,2.02
2023-03-07T05:33:16.571Z,2.04
2023-03-07T05:34:17.067Z,2.02
2023-03-07T05:35:16.587Z,2.05
2023-03-07T05:36:17.119Z,2.08
2023-03-07T05:37:16.612Z,2.08
2023-03-07T05:38:17.106Z,2.06
2023-03-07T05:39:16.604Z,2.09
2023-03-07T05:40:17.127Z,2.13
2023-03-07T05:41:16.609Z,2.10
2023-03-07T05:42:16.307Z,2.13
2023-03-07T05:43:16.835Z,2.17
2023-03-07T05:44:16.357Z,2.16
2023-03-07T05:45:16.897Z,2.17
2023-03-07T05:46:16.421Z,2.20
2023-03-07T05:47:17.025Z,2.20
2023-03-07T05:48:16.532Z,2.23
2023-03-07T05:49:16.992Z,2.22
2023-03-07T05:50:16.523Z,2.25
2023-03-07T05:51:17.004Z,2.25
2023-03-07T05:52:16.584Z,2.25
2023-03-07T05:53:17.072Z,2.26
2023-03-07T05:54:16.575Z,2.26
2023-03-07T05:55:17.054Z,2.22
2023-03-07T05:56:16.545Z,2.23
2023-03-07T05:57:17.049Z,2.28
2023-03-07T05:58:16.560Z,2.23
2023-03-07T05:59:17.068Z,2.26
2023-03-07T06:00:16.564Z,2.26
2023-03-07T06:01:17.074Z,2.29
2023-03-07T06:02:16.655Z,2.28
2023-03-07T06:03:17.208Z,2.29
2023-03-07T06:04:16.695Z,2.28
2023-03-07T06:05:17.195Z,2.29
2023-03-07T06:06:16.686Z,2.29
2023-03-07T06:07:17.215Z,2.28
2023-03-07T06:08:16.679Z,2.29
2023-03-07T06:09:17.164Z,2.28
2023-03-07T06:10:16.748Z,2.30
2023-03-07T06:11:17.262Z,2.32
2023-03-07T06:12:16.415Z,2.30
2023-03-07T06:13:16.891Z,2.33
2023-03-07T06:14:16.408Z,2.32
2023-03-07T06:15:16.913Z,2.34
2023-03-07T06:16:16.595Z,2.36
2023-03-07T06:17:17.172Z,2.39
2023-03-07T06:18:16.665Z,2.37
2023-03-07T06:19:17.180Z,2.36
2023-03-07T06:20:16.655Z,2.39
2023-03-07T06:21:17.155Z,2.39
2023-03-07T06:22:16.697Z,2.39
2023-03-07T06:23:17.213Z,2.43
2023-03-07T06:24:16.706Z,2.43
2023-03-07T06:25:17.216Z,2.43
2023-03-07T06:26:16.737Z,2.42
2023-03-07T06:27:17.261Z,2.43
2023-03-07T06:28:16.800Z,2.40
2023-03-07T06:29:16.324Z,2.44
2023-03-07T06:30:16.808Z,2.43
2023-03-07T06:31:16.401Z,2.44
2023-03-07T06:32:16.614Z,2.46
2023-03-07T06:33:17.153Z,2.49
2023-03-07T06:34:16.658Z,2.50
2023-03-07T06:35:17.189Z,2.50
2023-03-07T06:36:16.940Z,2.49
2023-03-07T06:37:16.467Z,2.50
2023-03-07T06:38:16.941Z,2.51
2023-03-07T06:39:16.430Z,2.51
2023-03-07T06:40:16.933Z,2.54
2023-03-07T06:41:16.448Z,2.56
2023-03-07T06:42:17.238Z,2.56
2023-03-07T06:43:16.727Z,2.57
2023-03-07T06:44:17.238Z,2.57
2023-03-07T06:45:16.756Z,2.59
2023-03-07T06:46:17.239Z,2.61
2023-03-07T06:47:16.763Z,2.61
2023-03-07T06:48:17.247Z,2.61
2023-03-07T06:49:16.862Z,2.63
2023-03-07T06:50:19.259Z,2.67
2023-03-07T06:51:16.695Z,2.70
2023-03-07T06:52:16.320Z,2.70
2023-03-07T06:53:16.822Z,2.74
2023-03-07T06:54:16.328Z,2.74
2023-03-07T06:55:16.874Z,2.75
2023-03-07T06:56:16.370Z,2.75
2023-03-07T06:57:16.857Z,2.77
2023-03-07T06:58:16.373Z,2.77
2023-03-07T06:59:16.867Z,2.79
2023-03-07T07:00:16.354Z,2.82
2023-03-07T07:01:16.855Z,2.82
2023-03-07T07:02:17.238Z,2.82
2023-03-07T07:03:17.042Z,2.87
2023-03-07T07:04:16.865Z,2.85
2023-03-07T07:05:16.353Z,2.89
2023-03-07T07:06:16.824Z,2.91
2023-03-07T07:07:17.294Z,2.89
2023-03-07T07:08:16.776Z,2.92
2023-03-07T07:09:17.245Z,2.91
2023-03-07T07:10:16.729Z,2.95
2023-03-07T07:11:17.219Z,2.96
2023-03-07T07:12:16.468Z,2.99
2023-03-07T07:13:16.960Z,2.98
2023-03-07T07:14:16.479Z,2.98
2023-03-07T07:15:16.983Z,2.99
2023-03-07T07:16:16.513Z,3.00
2023-03-07T07:17:17.079Z,3.05
2023-03-07T07:18:16.574Z,3.03
2023-03-07T07:19:17.053Z,3.00
2023-03-07T07:20:16.512Z,3.03
2023-03-07T07:21:17.035Z,3.02
2023-03-07T07:22:16.504Z,3.05
2023-03-07T07:23:16.980Z,3.07
2023-03-07T07:24:16.486Z,3.06
2023-03-07T07:25:16.986Z,3.07
2023-03-07T07:26:16.483Z,3.15
2023-03-07T07:27:16.998Z,3.20
2023-03-07T07:28:16.533Z,3.20
2023-03-07T07:29:17.042Z,3.19
2023-03-07T07:30:16.584Z,3.26
2023-03-07T07:31:17.053Z,3.23
2023-03-07T07:32:16.756Z,3.23
2023-03-07T07:33:16.662Z,3.28
2023-03-07T07:34:16.409Z,3.28
2023-03-07T07:35:16.920Z,3.26
2023-03-07T07:36:16.423Z,3.30
2023-03-07T07:37:16.947Z,3.33
2023-03-07T07:38:16.469Z,3.36
2023-03-07T07:39:16.978Z,3.43
2023-03-07T07:40:16.502Z,3.40
2023-03-07T07:41:17.022Z,3.43
2023-03-07T07:42:16.686Z,3.46
2023-03-07T07:43:17.190Z,3.44
2023-03-07T07:44:16.688Z,3.51
2023-03-07T07:45:17.202Z,3.54
2023-03-07T07:46:16.722Z,3.58
2023-03-07T07:47:16.341Z,3.57
2023-03-07T07:48:16.840Z,3.58
2023-03-07T07:49:18.310Z,3.47
2023-03-07T07:50:16.327Z,3.47
2023-03-07T07:51:16.837Z,3.46
2023-03-07T07:52:17.343Z,3.44
2023-03-07T07:53:16.837Z,3.47
2023-03-07T07:54:16.348Z,3.49
2023-03-07T07:55:16.854Z,3.53
2023-03-07T07:56:16.337Z,3.50
2023-03-07T07:57:16.834Z,3.51
2023-03-07T07:58:16.346Z,3.47
2023-03-07T07:59:16.837Z,3.47
2023-03-07T08:00:16.341Z,3.49
2023-03-07T08:01:16.828Z,3.51
2023-03-07T08:02:17.365Z,3.51
2023-03-07T08:03:16.984Z,3.50
2023-03-07T08:04:16.574Z,3.49
2023-03-07T08:05:17.093Z,3.47
2023-03-07T08:06:17.245Z,3.49
2023-03-07T08:07:16.368Z,3.51
2023-03-07T08:08:16.876Z,3.53
2023-03-07T08:09:16.415Z,3.55
2023-03-07T08:10:16.927Z,3.54
2023-03-07T08:11:17.436Z,3.55
2023-03-07T08:12:16.937Z,3.62
2023-03-07T08:13:16.415Z,3.60
2023-03-07T08:14:16.936Z,3.61
2023-03-07T08:15:16.459Z,3.65
2023-03-07T08:16:17.039Z,3.71
2023-03-07T08:17:16.660Z,3.71
2023-03-07T08:18:17.166Z,3.67
2023-03-07T08:19:16.659Z,3.71
2023-03-07T08:20:17.167Z,3.68
2023-03-07T08:21:16.668Z,3.69
2023-03-07T08:22:17.303Z,3.74
2023-03-07T08:23:16.800Z,3.72
2023-03-07T08:24:17.304Z,3.78
2023-03-07T08:25:16.790Z,3.78
2023-03-07T08:26:17.290Z,3.82
2023-03-07T08:27:16.809Z,3.83
2023-03-07T08:28:17.309Z,3.81
2023-03-07T08:29:16.828Z,3.85
2023-03-07T08:30:16.374Z,3.83
2023-03-07T08:31:16.919Z,3.88
2023-03-07T08:32:16.570Z,3.92
2023-03-07T08:33:17.126Z,3.96
2023-03-07T08:34:16.625Z,3.99
2023-03-07T08:35:17.132Z,3.97
2023-03-07T08:36:16.665Z,4.00
2023-03-07T08:37:17.318Z,4.07
2023-03-07T08:38:16.813Z,4.05
2023-03-07T08:39:17.347Z,4.12
2023-03-07T08:40:16.847Z,4.09
2023-03-07T08:41:16.313Z,4.09
2023-03-07T08:42:16.455Z,4.06
2023-03-07T08:43:17.018Z,4.14
2023-03-07T08:44:16.547Z,4.12
2023-03-07T08:45:17.092Z,4.10
2023-03-07T08:46:16.677Z,4.14
2023-03-07T08:47:17.288Z,4.21
2023-03-07T08:48:16.785Z,4.21
2023-03-07T08:49:17.330Z,4.25
2023-03-07T08:50:16.815Z,4.27
2023-03-07T08:51:16.340Z,4.30
2023-03-07T08:52:16.828Z,4.30
2023-03-07T08:53:16.330Z,4.34
2023-03-07T08:54:16.819Z,4.38
2023-03-07T08:55:17.306Z,4.38
2023-03-07T08:56:16.831Z,4.41
2023-03-07T08:57:16.328Z,4.40
2023-03-07T08:58:16.833Z,4.38
2023-03-07T08:59:16.381Z,4.42
2023-03-07T09:00:16.900Z,4.42
2023-03-07T09:01:16.424Z,4.44
2023-03-07T09:02:16.346Z,4.50
2023-03-07T09:03:16.850Z,4.55
2023-03-07T09:04:16.464Z,4.58
2023-03-07T09:05:17.157Z,4.58
2023-03-07T09:06:16.662Z,4.61
2023-03-07T09:07:17.205Z,4.69
2023-03-07T09:08:16.741Z,4.75
2023-03-07T09:09:17.240Z,4.80
2023-03-07T09:10:16.715Z,4.73
2023-03-07T09:11:17.254Z,4.73
2023-03-07T09:12:16.925Z,4.79
2023-03-07T09:13:18.242Z,4.86
2023-03-07T09:14:17.084Z,4.87
2023-03-07T09:15:16.607Z,5.00
2023-03-07T09:16:17.125Z,5.07
2023-03-07T09:17:16.681Z,5.08
2023-03-07T09:18:17.174Z,5.17
2023-03-07T09:19:16.683Z,5.23
2023-03-07T09:20:17.208Z,5.34
2023-03-07T09:21:16.714Z,5.43
2023-03-07T09:22:16.471Z,5.37
2023-03-07T09:23:16.996Z,5.42
2023-03-07T09:24:16.484Z,5.57
2023-03-07T09:25:17.001Z,5.59
2023-03-07T09:26:16.492Z,5.58
2023-03-07T09:27:16.990Z,5.65
2023-03-07T09:28:16.526Z,5.49
2023-03-07T09:29:17.036Z,5.38
2023-03-07T09:30:16.555Z,5.30
2023-03-07T09:31:17.131Z,5.31
2023-03-07T09:32:16.762Z,5.28
2023-03-07T09:33:17.314Z,5.35
2023-03-07T09:34:16.839Z,5.43
2023-03-07T09:35:16.354Z,5.55
2023-03-07T09:36:16.870Z,5.66
2023-03-07T09:37:16.398Z,5.70
2023-03-07T09:38:16.928Z,5.70
2023-03-07T09:39:16.437Z,5.80
2023-03-07T09:40:16.949Z,5.80
2023-03-07T09:41:16.476Z,5.76
2023-03-07T09:42:17.131Z,5.79
2023-03-07T09:43:16.651Z,5.76
2023-03-07T09:44:17.214Z,5.72
2023-03-07T09:45:16.688Z,5.72
2023-03-07T09:46:17.194Z,5.75
2023-03-07T09:47:16.714Z,5.77
2023-03-07T09:48:17.212Z,5.69
2023-03-07T09:49:16.691Z,5.66
2023-03-07T09:50:17.196Z,5.68
2023-03-07T09:51:16.709Z,5.68
2023-03-07T09:52:17.165Z,5.77
2023-03-07T09:53:16.649Z,5.76
2023-03-07T09:54:17.145Z,5.89
2023-03-07T09:55:16.678Z,5.85
2023-03-07T09:56:17.183Z,5.80
2023-03-07T09:57:17.700Z,5.87
2023-03-07T09:58:16.392Z,5.90
2023-03-07T09:59:22.584Z,5.86
2023-03-07T10:00:16.476Z,5.87
2023-03-07T10:01:16.964Z,5.90
2023-03-07T10:02:16.333Z,6.00
2023-03-07T10:03:16.845Z,6.08
2023-03-07T10:04:16.436Z,6.17
2023-03-07T10:05:17.014Z,6.12
2023-03-07T10:06:16.523Z,6.03
2023-03-07T10:07:17.035Z,5.89
2023-03-07T10:08:16.545Z,5.80
2023-03-07T10:09:17.055Z,5.73
2023-03-07T10:10:16.611Z,5.73
2023-03-07T10:11:17.153Z,5.72
2023-03-07T10:12:16.918Z,5.83
2023-03-07T10:13:16.418Z,5.87
2023-03-07T10:14:17.015Z,5.87
2023-03-07T10:15:16.583Z,5.90
2023-03-07T10:16:16.573Z,5.98
2023-03-07T10:17:17.091Z,6.01
2023-03-07T10:18:16.861Z,5.98
2023-03-07T10:19:16.679Z,5.97
2023-03-07T10:20:16.477Z,5.97
2023-03-07T10:21:17.045Z,6.01
2023-03-07T10:22:17.233Z,6.11
2023-03-07T10:23:16.754Z,6.12
2023-03-07T10:24:17.260Z,6.10
2023-03-07T10:25:16.765Z,6.12
2023-03-07T10:26:17.233Z,6.21
2023-03-07T10:27:16.734Z,6.26
2023-03-07T10:28:17.236Z,6.15
2023-03-07T10:29:16.758Z,6.21
2023-03-07T10:30:17.267Z,6.29
2023-03-07T10:31:16.863Z,6.35
2023-03-07T10:32:16.921Z,6.42
2023-03-07T10:33:16.518Z,6.48
2023-03-07T10:34:26.187Z,6.49
2023-03-07T10:35:17.186Z,6.42
2023-03-07T10:36:16.675Z,6.39
2023-03-07T10:37:17.205Z,6.38
2023-03-07T10:38:16.684Z,6.48
2023-03-07T10:39:17.209Z,6.45
2023-03-07T10:40:16.718Z,6.42
2023-03-07T10:41:17.205Z,6.35
2023-03-07T10:42:16.824Z,6.57
2023-03-07T10:43:16.330Z,6.77
2023-03-07T10:44:16.830Z,6.87
2023-03-07T10:45:16.597Z,6.91
2023-03-07T10:46:25.024Z,7.08
2023-03-07T10:47:16.671Z,6.93
2023-03-07T10:48:16.453Z,7.08
2023-03-07T10:49:16.964Z,7.35
2023-03-07T10:50:16.469Z,7.38
2023-03-07T10:51:16.975Z,7.47
2023-03-07T10:52:16.368Z,7.35
2023-03-07T10:53:16.900Z,7.58
2023-03-07T10:54:16.378Z,7.64
2023-03-07T10:55:16.913Z,7.66
2023-03-07T10:56:16.394Z,7.54
2023-03-07T10:57:16.969Z,7.30
2023-03-07T10:58:16.467Z,7.21
2023-03-07T10:59:16.948Z,7.26
2023-03-07T11:00:16.473Z,7.28
2023-03-07T11:01:17.022Z,7.29
2023-03-07T11:02:16.585Z,7.07
2023-03-07T11:03:17.145Z,6.98
2023-03-07T11:04:16.661Z,6.93
2023-03-07T11:05:17.151Z,6.79
2023-03-07T11:06:16.655Z,6.90
2023-03-07T11:07:17.168Z,6.87
2023-03-07T11:08:16.659Z,6.74
2023-03-07T11:09:17.201Z,6.80
2023-03-07T11:10:16.750Z,6.94
2023-03-07T11:11:16.341Z,6.91
2023-03-07T11:12:16.859Z,6.97
2023-03-07T11:13:16.378Z,6.93
2023-03-07T11:14:18.517Z,6.94
2023-03-07T11:15:16.518Z,7.01
2023-03-07T11:16:17.133Z,6.93
2023-03-07T11:17:16.723Z,6.97
2023-03-07T11:18:17.216Z,7.00
2023-03-07T11:19:16.744Z,7.05
2023-03-07T11:20:17.245Z,6.90
2023-03-07T11:21:16.775Z,6.91
2023-03-07T11:22:16.556Z,6.83
2023-03-07T11:23:17.055Z,6.90
2023-03-07T11:24:16.574Z,6.86
2023-03-07T11:25:17.134Z,6.90
2023-03-07T11:26:16.645Z,6.74
2023-03-07T11:27:17.195Z,6.77
2023-03-07T11:28:16.660Z,6.73
2023-03-07T11:29:17.193Z,6.77
2023-03-07T11:30:16.822Z,6.83
2023-03-07T11:31:16.412Z,6.84
2023-03-07T11:32:16.535Z,7.05
2023-03-07T11:33:17.070Z,6.93
2023-03-07T11:34:16.572Z,6.98
2023-03-07T11:35:17.073Z,6.88
2023-03-07T11:36:16.575Z,6.84
2023-03-07T11:37:17.080Z,6.83
2023-03-07T11:38:16.598Z,6.84
2023-03-07T11:39:17.085Z,6.80
2023-03-07T11:40:16.630Z,6.80
2023-03-07T11:41:17.159Z,6.74
2023-03-07T11:42:17.025Z,6.74
2023-03-07T11:43:16.508Z,6.73
2023-03-07T11:44:17.014Z,6.69
2023-03-07T11:45:16.509Z,6.74
2023-03-07T11:46:17.122Z,6.82
2023-03-07T11:47:16.707Z,6.82
2023-03-07T11:48:17.187Z,6.93
2023-03-07T11:49:19.175Z,6.90
2023-03-07T11:50:17.191Z,6.77
2023-03-07T11:51:16.676Z,6.77
2023-03-07T11:52:16.388Z,6.70
2023-03-07T11:53:16.915Z,6.66
2023-03-07T11:54:16.417Z,6.67
2023-03-07T11:55:16.900Z,6.74
2023-03-07T11:56:16.431Z,6.79
2023-03-07T11:57:16.926Z,6.76
2023-03-07T11:58:16.415Z,6.72
2023-03-07T11:59:16.962Z,6.74
2023-03-07T12:00:16.537Z,6.73
2023-03-07T12:01:17.034Z,6.88
2023-03-07T12:02:17.308Z,6.90
2023-03-07T12:03:16.829Z,6.88
2023-03-07T12:04:16.344Z,6.91
2023-03-07T12:05:16.998Z,7.02
2023-03-07T12:06:16.642Z,7.16
2023-03-07T12:07:17.175Z,7.04
2023-03-07T12:08:16.660Z,6.95
2023-03-07T12:09:17.165Z,6.88
2023-03-07T12:10:16.712Z,6.83
2023-03-07T12:11:17.178Z,6.79
2023-03-07T12:12:16.542Z,6.93
2023-03-07T12:13:17.040Z,6.84
2023-03-07T12:14:16.545Z,6.87
2023-03-07T12:15:17.081Z,6.84
2023-03-07T12:16:16.578Z,6.83
2023-03-07T12:17:17.126Z,6.74
2023-03-07T12:18:16.637Z,6.73
2023-03-07T12:19:17.139Z,6.72
2023-03-07T12:20:16.655Z,6.67
2023-03-07T12:21:17.171Z,6.66
2023-03-07T12:22:16.643Z,6.60
2023-03-07T12:23:17.228Z,6.61
2023-03-07T12:24:16.755Z,6.66
2023-03-07T12:25:17.265Z,6.66
2023-03-07T12:26:16.760Z,6.61
2023-03-07T12:27:17.275Z,6.67
2023-03-07T12:28:17.026Z,6.65
2023-03-07T12:29:16.510Z,6.59
2023-03-07T12:30:16.989Z,6.57
2023-03-07T12:31:16.505Z,6.49
2023-03-07T12:32:17.367Z,6.46
2023-03-07T12:33:17.269Z,6.45
2023-03-07T12:34:17.023Z,6.43
2023-03-07T12:35:16.542Z,6.42
2023-03-07T12:36:17.080Z,6.36
2023-03-07T12:37:16.587Z,6.38
2023-03-07T12:38:17.070Z,6.38
2023-03-07T12:39:16.603Z,6.36
2023-03-07T12:40:17.107Z,6.32
2023-03-07T12:41:16.588Z,6.40
2023-03-07T12:42:17.106Z,6.32
2023-03-07T12:43:16.579Z,6.26
2023-03-07T12:44:17.096Z,6.24
2023-03-07T12:45:16.780Z,6.20
2023-03-07T12:46:16.385Z,6.17
2023-03-07T12:47:16.994Z,6.14
2023-03-07T12:48:16.469Z,6.12
2023-03-07T12:49:16.959Z,6.07
2023-03-07T12:50:16.480Z,6.07
2023-03-07T12:51:16.983Z,6.03
2023-03-07T12:52:16.359Z,6.04
2023-03-07T12:53:16.843Z,6.04
2023-03-07T12:54:16.340Z,6.00
2023-03-07T12:55:16.874Z,5.93
2023-03-07T12:56:16.392Z,5.92
2023-03-07T12:57:16.932Z,5.90
2023-03-07T12:58:16.427Z,5.90
2023-03-07T12:59:16.923Z,5.92
2023-03-07T13:00:16.469Z,5.92
2023-03-07T13:01:17.139Z,5.90
2023-03-07T13:02:16.370Z,5.93
2023-03-07T13:03:16.867Z,5.96
2023-03-07T13:04:16.389Z,5.94
2023-03-07T13:05:16.988Z,5.90
2023-03-07T13:06:16.495Z,5.92
2023-03-07T13:07:16.999Z,5.94
2023-03-07T13:08:16.495Z,5.94
2023-03-07T13:09:17.024Z,5.97
2023-03-07T13:10:16.537Z,6.00
2023-03-07T13:11:17.095Z,6.00
2023-03-07T13:12:16.778Z,5.94
2023-03-07T13:13:16.317Z,5.96
2023-03-07T13:14:16.861Z,5.93
2023-03-07T13:15:16.385Z,5.94
2023-03-07T13:16:17.026Z,6.01
2023-03-07T13:17:16.582Z,6.00
2023-03-07T13:18:17.094Z,6.03